• Join FlightAware (Why Join?)
  • Login
  • US Flag 
05:50PM EST


 

Airport Tracker/Info


-or-


 

Live Flight TrackerFlight Track Log ✈ EJA839 ✈ 23-Apr-2013 ✈ KPBI - KILM

Flight Track Log - Related Links

Times and Time Zones

All times are in EDT time to prevent confusion due to time zone crossing. See the EJA839 flight status page for this flight to view local times or setup timezone preferences in your user account.

Time Position Orientation Groundspeed Altitude Reporting Facility
EDT Latitude Longitude Course Direction KTS MPH feet Rate Location/Type
02:41PM 26.6789 -80.0233 336° Northwest 217 250 3,800  Level Miami Center
02:42PM 26.7317 -79.9967 24° Northeast 221 254 6,700 2,400 Climbing Miami Center
02:43PM 26.7850 -80.0400 324° Northwest 182 209 8,600 1,800 Climbing Miami Center
02:44PM 26.8061 -80.1244 286° West 221 254 10,400 2,040 Climbing Miami Center
02:45PM 26.8331 -80.2253 287° West 300 345 12,700 1,800 Climbing Miami Center
02:46PM 26.8644 -80.3169 291° West 324 373 14,000 1,620 Climbing Miami Center
02:47PM 26.9660 -80.3746 336° Northwest  Level FlightAware Approximate
02:47PM 26.9406 -80.3681 329° Northwest 314 361 16,000  Level Miami Center
02:48PM 27.0169 -80.3983 341° North 308 354 17,800 1,620 Climbing Miami Center
02:49PM 27.1100 -80.4408 338° Northwest 313 360 19,300 1,500 Climbing Miami Center
02:50PM 27.1925 -80.4761 339° North 318 366 20,800 1,500 Climbing Miami Center
02:51PM 27.2814 -80.5139 339° North 323 372 22,300 1,440 Climbing Miami Center
02:52PM 27.3681 -80.5494 340° North 328 377 23,700 1,440 Climbing Miami Center
02:53PM 27.4592 -80.5853 341° North 328 377 25,200 1,500 Climbing Miami Center
02:54PM 27.5458 -80.6231 339° North 328 377 26,700 1,440 Climbing Miami Center
02:55PM 27.6347 -80.6589 340° North 328 377 28,100 1,200 Climbing Miami Center
02:56PM 27.7256 -80.6994 338° Northwest 333 383 29,200 1,020 Climbing Miami Center
02:57PM 27.8183 -80.7378 340° North 343 395 30,200 960 Climbing Miami Center
02:58PM 27.9156 -80.7739 342° North 355 409 31,200 960 Climbing Miami Center
02:59PM 28.0081 -80.8172 338° Northwest 362 417 32,200 1,020 Climbing Miami Center
03:00PM 28.1072 -80.8581 340° North 367 422 33,300 1,260 Climbing Miami Center
03:01PM 28.1939 -80.8919 341° North 372 428 34,800 1,500 Climbing Miami Center
03:02PM 28.2825 -80.9328 338° Northwest 360 414 36,300 1,320 Climbing Miami Center
03:04PM 28.4344 -80.9994 339° North 334 384 38,500 960 Climbing Jacksonville Center
03:05PM 28.5183 -81.0356 339° North 329 379 39,000 240 Climbing Jacksonville Center
03:06PM 28.6067 -81.0767 338° Northwest 329 379 39,000  Level Jacksonville Center
03:07PM 28.6969 -81.1150 340° North 341 392 39,000  Level Jacksonville Center
03:08PM 28.7975 -81.1417 347° North 354 407 39,000  Level Jacksonville Center
03:09PM 28.9000 -81.1661 348° North 365 420 39,000  Level Jacksonville Center
03:10PM 29.0047 -81.1903 349° North 375 432 39,000  Level Jacksonville Center
03:11PM 29.1053 -81.2147 348° North 374 430 39,000  Level Jacksonville Center
03:12PM 29.2078 -81.2392 348° North 369 425 39,000  Level Jacksonville Center
03:13PM 29.3083 -81.2614 349° North 374 430 39,000  Level Jacksonville Center
03:14PM 29.4131 -81.2858 349° North 374 430 39,000  Level Jacksonville Center
03:15PM 29.5008 -81.3106 346° North 369 425 39,000  Level Jacksonville Center
03:16PM 29.6161 -81.3375 349° North 375 432 39,000  Level Jacksonville Center
03:17PM 29.6978 -81.3575 348° North 375 432 39,000  Level Jacksonville Center
03:18PM 29.8233 -81.3867 349° North 375 432 39,000  Level Jacksonville Center
03:19PM 29.9258 -81.4092 349° North 375 432 39,000  Level Jacksonville Center
03:20PM 30.0264 -81.4364 347° North 375 432 39,000  Level Jacksonville Center
03:21PM 30.1292 -81.4611 348° North 375 432 39,000  Level Jacksonville Center
03:22PM 30.2336 -81.4861 348° North 375 432 39,000  Level Jacksonville Center
03:23PM 30.3361 -81.5039 351° North 375 432 39,000  Level Jacksonville Center
03:24PM 30.4425 -81.4758 13° North 375 432 39,000  Level Jacksonville Center
03:25PM 30.5483 -81.4406 16° North 380 437 39,000  Level Jacksonville Center
03:26PM 30.6567 -81.4025 17° North 391 450 39,000  Level Jacksonville Center
03:27PM 30.7625 -81.3647 17° North 397 457 39,000  Level Jacksonville Center
03:28PM 30.8664 -81.3025 27° Northeast 397 457 39,000  Level Jacksonville Center
03:29PM 30.9658 -81.2428 27° Northeast 402 463 39,000  Level Jacksonville Center
03:30PM 31.0672 -81.1778 29° Northeast 402 463 39,000  Level Jacksonville Center
03:31PM 31.1686 -81.1178 27° Northeast 402 463 39,000  Level Jacksonville Center
03:32PM 31.2700 -81.0550 28° Northeast 407 468 39,000  Level Jacksonville Center
03:33PM 31.3694 -80.9922 28° Northeast 401 461 39,000  Level Jacksonville Center
03:34PM 31.4603 -80.9369 27° Northeast 401 461 39,000  Level Jacksonville Center
03:35PM 31.5719 -80.8686 28° Northeast 400 460 39,000  Level Jacksonville Center
03:36PM 31.6714 -80.8056 28° Northeast 400 460 39,000  Level Jacksonville Center
03:37PM 31.7622 -80.7497 28° Northeast 400 460 39,000 -780 Level Jacksonville Center
03:38PM 31.8697 -80.6861 27° Northeast 400 460 37,500 -1,500 Descending Jacksonville Center
03:39PM 31.9606 -80.6275 29° Northeast 400 460 36,100 -1,260 Descending Jacksonville Center
03:40PM 32.0678 -80.5611 28° Northeast 400 460 35,000 -600 Descending Jacksonville Center
03:41PM 32.1567 -80.5072 27° Northeast 395 455 35,000  Level Jacksonville Center
03:42PM 32.2536 -80.4433 29° Northeast 395 455 35,000  Level Jacksonville Center
03:43PM 32.3547 -80.3817 27° Northeast 390 449 35,000  Level Jacksonville Center
03:44PM 32.4536 -80.3197 28° Northeast 390 449 35,000  Level Jacksonville Center
03:45PM 32.5544 -80.2531 29° Northeast 396 456 35,000  Level Jacksonville Center
03:46PM 32.6556 -80.1908 27° Northeast 401 461 35,000  Level Jacksonville Center
03:47PM 32.7564 -80.1261 28° Northeast 401 461 35,000 -480 Level Jacksonville Center
03:48PM 32.8550 -80.0636 28° Northeast 401 461 34,100 -1,200 Descending Jacksonville Center
03:49PM 32.9386 -79.9744 42° Northeast 401 461 32,700 -1,500 Descending Jacksonville Center
03:50PM 33.0114 -79.8681 51° Northeast 401 461 31,200 -1,500 Descending Jacksonville Center
03:51PM 33.0819 -79.7664 50° Northeast 401 461 29,800 -1,260 Descending Jacksonville Center
03:52PM 33.1564 -79.6597 50° Northeast 406 467 28,700 -1,500 Descending Jacksonville Center
03:53PM 33.2367 -79.5400 51° Northeast 412 474 26,900 -1,680 Descending Jacksonville Center
03:54PM 33.3069 -79.4381 50° Northeast 412 474 25,400 -1,500 Descending Jacksonville Center
03:55PM 33.3772 -79.3333 51° Northeast 412 474 23,900 -1,500 Descending Jacksonville Center
03:56PM 33.4433 -79.2361 51° Northeast 400 460 22,400 -1,500 Descending Jacksonville Center
03:57PM 33.5075 -79.1439 50° Northeast 372 428 20,900 -1,500 Descending Jacksonville Center
03:58PM 33.5592 -79.0642 52° Northeast 347 399 19,500 -1,680 Descending Jacksonville Center
04:00PM 33.6647 -78.9100 51° Northeast 363 418 16,600 -1,920 Descending Washington Center
04:01PM 33.7258 -78.8175 52° Northeast 363 418 14,600 -2,040 Descending Washington Center
04:02PM 33.7867 -78.7275 51° Northeast 358 412 12,600 -1,620 Descending Washington Center
04:03PM 33.8450 -78.6422 51° Northeast 348 400 11,400 -960 Descending Washington Center
04:04PM 33.9036 -78.5542 51° Northeast 343 395 10,700 -600 Descending Washington Center
04:05PM 33.9619 -78.4661 51° Northeast 343 395 10,300 -300 Descending Washington Center
04:06PM 34.0206 -78.3781 51° Northeast 343 395 10,100 -240 Descending Washington Center
04:07PM 34.0747 -78.2922 53° Northeast 338 389 9,900 -840 Descending Washington Center
04:08PM 34.1183 -78.2083 58° Northeast 315 362 8,500 -1,740 Descending Washington Center
04:09PM 34.1639 -78.1194 58° Northeast 300 345 6,500 -2,280 Descending Washington Center
04:10PM 34.1989 -78.0425 61° Northeast 272 313 4,000 -2,400 Descending Washington Center
04:11PM 34.2317 -77.9733 60° Northeast 252 290 1,700 -2,340 Descending Washington Center
04:13PM 34.2706 -77.9026 202° Southwest  Level Estimated
04:20PM 34.2667 -77.9000 202° Southwest  Level FlightAware Approximate
04:21PM 34.2706 -77.9026 202° Southwest  Level Estimated